createdAt,value
2023-01-21T00:02:24.592Z,99178.35
2023-01-21T00:05:27.654Z,99181.25
2023-01-21T00:08:30.554Z,99182.66
2023-01-21T00:11:33.306Z,99181.89
2023-01-21T00:14:36.203Z,99180.85
2023-01-21T00:17:38.932Z,99179.98
2023-01-21T00:20:41.778Z,99188.48
2023-01-21T00:23:47.819Z,99184.54
2023-01-21T00:26:51.145Z,99183.70
2023-01-21T00:29:53.897Z,99195.34
2023-01-21T00:32:58.185Z,99191.09
2023-01-21T00:36:05.799Z,99197.95
2023-01-21T00:39:17.412Z,99193.36
2023-01-21T00:42:20.183Z,99183.40
2023-01-21T00:45:23.012Z,99186.69
2023-01-21T00:48:29.581Z,99188.30
2023-01-21T00:51:32.377Z,99193.48
2023-01-21T00:54:35.137Z,99196.15
2023-01-21T00:57:37.915Z,99192.80
2023-01-21T01:00:40.782Z,99182.64
2023-01-21T01:03:43.897Z,99176.21
2023-01-21T01:06:46.788Z,99168.95
2023-01-21T01:09:49.605Z,99173.52
2023-01-21T01:12:52.924Z,99175.66
2023-01-21T01:15:57.928Z,99175.30
2023-01-21T01:19:00.877Z,99170.27
2023-01-21T01:22:06.149Z,99167.70
2023-01-21T01:25:09.553Z,99167.81
2023-01-21T01:28:12.324Z,99162.88
2023-01-21T01:31:18.052Z,99158.57
2023-01-21T01:34:20.909Z,99142.20
2023-01-21T01:37:23.680Z,99137.21
2023-01-21T01:40:26.580Z,99126.27
2023-01-21T01:43:50.207Z,99129.27
2023-01-21T01:47:05.605Z,99126.23
2023-01-21T01:50:14.196Z,99122.27
2023-01-21T01:53:19.503Z,99111.30
2023-01-21T01:56:22.813Z,99120.95
2023-01-21T01:59:26.477Z,99129.90
2023-01-21T02:02:29.858Z,99129.00
2023-01-21T02:05:37.446Z,99128.15
2023-01-21T02:08:43.353Z,99124.31
2023-01-21T02:11:46.339Z,99125.38
2023-01-21T02:14:49.990Z,99123.30
2023-01-21T02:18:01.865Z,99125.92
2023-01-21T02:21:13.584Z,99123.01
2023-01-21T02:24:46.048Z,99122.27
2023-01-21T02:28:13.596Z,99117.30
2023-01-21T02:32:08.429Z,99105.44
2023-01-21T02:35:26.347Z,99101.26
2023-01-21T02:38:46.529Z,99103.70
2023-01-21T02:42:00.167Z,99097.81
2023-01-21T02:45:11.365Z,99100.52
2023-01-21T02:48:19.821Z,99099.23
2023-01-21T02:51:24.202Z,99102.61
2023-01-21T02:54:39.008Z,99101.92
2023-01-21T02:57:51.384Z,99103.15
2023-01-21T03:01:11.330Z,99103.87
2023-01-21T03:04:27.990Z,99097.08
2023-01-21T03:07:40.356Z,99086.25
2023-01-21T03:10:55.915Z,99079.48
2023-01-21T03:14:29.474Z,99076.25
2023-01-21T03:17:41.662Z,99067.71
2023-01-21T03:20:49.333Z,99070.81
2023-01-21T03:23:54.670Z,99066.19
2023-01-21T03:27:02.529Z,99060.35
2023-01-21T03:30:17.315Z,99051.70
2023-01-21T03:33:21.929Z,99052.52
2023-01-21T03:36:58.420Z,99045.87
2023-01-21T03:40:22.323Z,99044.17
2023-01-21T03:43:27.740Z,99036.05
2023-01-21T03:46:53.088Z,99035.27
2023-01-21T03:50:03.875Z,99026.77
2023-01-21T03:53:07.591Z,99021.22
2023-01-21T03:56:10.390Z,99016.95
2023-01-21T03:59:13.441Z,99019.85
2023-01-21T04:02:20.425Z,99023.52
2023-01-21T04:05:24.715Z,99017.27
2023-01-21T04:08:27.588Z,99011.74
2023-01-21T04:11:30.334Z,99017.68
2023-01-21T04:14:34.613Z,99016.92
2023-01-21T04:17:37.451Z,99016.04
2023-01-21T04:20:40.204Z,99010.77
2023-01-21T04:23:45.216Z,99002.89
2023-01-21T04:26:48.048Z,99011.61
2023-01-21T04:29:58.431Z,99006.20
2023-01-21T04:33:01.262Z,98993.01
2023-01-21T04:36:06.422Z,98983.58
2023-01-21T04:39:11.420Z,98970.83
2023-01-21T04:42:14.135Z,98966.39
2023-01-21T04:45:16.950Z,98953.37
2023-01-21T04:48:19.698Z,98948.80
2023-01-21T04:51:22.741Z,98960.54
2023-01-21T04:54:25.569Z,98950.71
2023-01-21T04:57:28.378Z,98957.09
2023-01-21T05:00:31.096Z,98956.90
2023-01-21T05:03:33.934Z,98952.29
2023-01-21T05:06:36.823Z,98970.61
2023-01-21T05:09:39.556Z,98987.64
2023-01-21T05:12:42.575Z,99004.84
2023-01-21T05:15:45.323Z,98997.92
2023-01-21T05:18:51.102Z,98991.34
2023-01-21T05:21:53.951Z,98984.27
2023-01-21T05:24:56.851Z,98995.55
2023-01-21T05:27:59.607Z,98999.08
2023-01-21T05:31:10.629Z,99004.67
2023-01-21T05:34:13.475Z,98998.98
2023-01-21T05:37:18.910Z,98992.71
2023-01-21T05:40:22.339Z,98989.27
2023-01-21T05:43:28.345Z,98990.46
2023-01-21T05:46:31.134Z,98992.74
2023-01-21T05:49:34.007Z,98997.94
2023-01-21T05:52:37.155Z,99000.91
2023-01-21T05:55:39.981Z,99001.98
2023-01-21T05:58:42.754Z,99004.42
2023-01-21T06:01:45.495Z,98991.89
2023-01-21T06:04:48.395Z,99002.28
2023-01-21T06:07:52.239Z,98995.07
2023-01-21T06:10:56.408Z,98993.21
2023-01-21T06:13:59.115Z,98989.36
2023-01-21T06:17:01.848Z,98983.18
2023-01-21T06:20:05.182Z,98991.77
2023-01-21T06:23:08.002Z,98983.73
2023-01-21T06:26:11.472Z,98998.56
2023-01-21T06:29:14.241Z,98989.36
2023-01-21T06:32:16.995Z,98999.13
2023-01-21T06:35:20.111Z,98993.15
2023-01-21T06:38:24.157Z,98995.09
2023-01-21T06:41:27.235Z,98996.65
2023-01-21T06:44:30.005Z,98986.02
2023-01-21T06:47:35.349Z,98991.16
2023-01-21T06:50:38.215Z,98998.94
2023-01-21T06:53:40.950Z,98997.64
2023-01-21T06:56:44.218Z,99000.85
2023-01-21T06:59:46.941Z,99000.76
2023-01-21T07:02:49.860Z,98997.58
2023-01-21T07:05:52.842Z,98998.88
2023-01-21T07:08:55.656Z,98996.45
2023-01-21T07:11:58.755Z,98997.73
2023-01-21T07:15:03.240Z,99004.99
2023-01-21T07:18:06.170Z,99010.27
2023-01-21T07:21:09.040Z,99006.63
2023-01-21T07:24:12.066Z,99002.39
2023-01-21T07:27:15.954Z,99001.33
2023-01-21T07:30:20.614Z,99005.92
2023-01-21T07:33:23.384Z,99002.36
2023-01-21T07:36:26.864Z,99000.41
2023-01-21T07:39:29.612Z,98990.99
2023-01-21T07:42:33.162Z,98990.09
2023-01-21T07:45:38.333Z,98991.19
2023-01-21T07:48:41.083Z,98990.02
2023-01-21T07:51:48.187Z,98988.46
2023-01-21T07:54:50.902Z,98989.80
2023-01-21T07:57:57.078Z,98992.63
2023-01-21T08:00:59.804Z,98990.60
2023-01-21T08:04:02.741Z,98991.25
2023-01-21T08:07:12.819Z,98989.77
2023-01-21T08:10:17.819Z,98987.80
2023-01-21T08:13:21.004Z,98990.77
2023-01-21T08:16:23.954Z,98986.52
2023-01-21T08:19:27.535Z,98985.09
2023-01-21T08:22:31.534Z,98981.45
2023-01-21T08:25:34.291Z,98981.13
2023-01-21T08:28:37.083Z,98982.36
2023-01-21T08:31:40.007Z,98981.77
2023-01-21T08:34:42.995Z,98981.16
2023-01-21T08:37:45.846Z,98981.73
2023-01-21T08:40:48.579Z,98983.29
2023-01-21T08:43:52.340Z,98985.98
2023-01-21T08:46:55.832Z,98986.65
2023-01-21T08:49:58.551Z,98985.73
2023-01-21T08:53:01.594Z,98990.30
2023-01-21T08:56:05.339Z,98995.77
2023-01-21T08:59:08.271Z,98996.17
2023-01-21T09:02:12.083Z,98997.58
2023-01-21T09:05:15.125Z,98995.89
2023-01-21T09:08:18.681Z,98998.60
2023-01-21T09:11:22.417Z,98997.27
2023-01-21T09:14:26.735Z,98989.64
2023-01-21T09:17:29.493Z,98994.98
2023-01-21T09:20:32.269Z,98990.88
2023-01-21T09:23:37.066Z,98991.58
2023-01-21T09:26:46.195Z,98989.77
2023-01-21T09:29:48.926Z,98986.32
2023-01-21T09:32:51.710Z,98989.98
2023-01-21T09:35:56.620Z,98991.95
2023-01-21T09:39:00.410Z,98991.64
2023-01-21T09:42:03.328Z,98999.00
2023-01-21T09:45:06.791Z,98997.02
2023-01-21T09:48:21.821Z,99000.17
2023-01-21T09:51:42.444Z,99000.92
2023-01-21T09:54:46.697Z,98998.86
2023-01-21T09:58:10.836Z,98998.76
2023-01-21T10:01:31.272Z,98997.95
2023-01-21T10:04:48.213Z,98999.73
2023-01-21T10:08:24.785Z,99006.66
2023-01-21T10:11:27.542Z,99003.91
2023-01-21T10:14:42.205Z,99000.96
2023-01-21T10:18:12.974Z,98996.91
2023-01-21T10:21:39.908Z,99003.72
2023-01-21T10:24:50.030Z,99004.56
2023-01-21T10:27:54.850Z,99005.58
2023-01-21T10:31:08.150Z,99011.80
2023-01-21T10:34:22.252Z,99012.72
2023-01-21T10:37:48.588Z,99009.09
2023-01-21T10:41:04.580Z,99009.77
2023-01-21T10:44:27.038Z,99006.64
2023-01-21T10:47:38.843Z,99006.91
2023-01-21T10:50:59.785Z,99011.17
2023-01-21T10:54:17.506Z,99016.84
2023-01-21T10:57:30.054Z,99022.91
2023-01-21T11:00:38.617Z,99017.58
2023-01-21T11:03:49.348Z,99026.27
2023-01-21T11:07:04.600Z,99027.48
2023-01-21T11:10:08.592Z,99030.17
2023-01-21T11:25:49.147Z,99019.55
2023-01-21T11:29:17.642Z,99023.08
2023-01-21T11:32:26.137Z,99023.07
2023-01-21T11:35:28.869Z,99024.59
2023-01-21T11:38:34.111Z,99030.92
2023-01-21T11:41:40.061Z,99032.27
2023-01-21T11:44:57.511Z,99037.23
2023-01-21T11:48:01.361Z,99033.80
2023-01-21T11:51:09.310Z,99035.84
2023-01-21T11:54:18.158Z,99042.85
2023-01-21T11:57:34.140Z,99046.48
2023-01-21T12:00:36.883Z,99047.66
2023-01-21T12:03:55.921Z,99049.20
2023-01-21T12:20:30.304Z,99049.42
2023-01-21T12:23:51.384Z,99051.21
2023-01-21T12:27:13.141Z,99047.80
2023-01-21T12:31:07.178Z,99056.02
2023-01-21T12:34:15.504Z,99052.79
2023-01-21T12:37:22.141Z,99061.80
2023-01-21T12:40:36.275Z,99065.19
2023-01-21T12:43:46.523Z,99063.13
2023-01-21T12:46:54.413Z,99064.35
2023-01-21T12:50:21.496Z,99069.63
2023-01-21T12:53:40.031Z,99075.50
2023-01-21T12:57:17.310Z,99079.55
2023-01-21T13:00:34.404Z,99087.83
2023-01-21T13:03:59.789Z,99086.20
2023-01-21T13:07:14.822Z,99099.36
2023-01-21T13:10:30.878Z,99109.15
2023-01-21T13:13:44.176Z,99109.30
2023-01-21T13:16:56.209Z,99111.71
2023-01-21T13:19:59.354Z,99112.64
2023-01-21T13:23:14.831Z,99120.17
2023-01-21T13:26:18.063Z,99123.32
2023-01-21T13:29:45.865Z,99126.17
2023-01-21T13:32:53.269Z,99129.69
2023-01-21T13:36:02.922Z,99133.11
2023-01-21T13:39:18.693Z,99136.73
2023-01-21T13:42:40.509Z,99146.89
2023-01-21T13:46:07.551Z,99145.92
2023-01-21T13:49:54.486Z,99148.85
2023-01-21T13:53:17.554Z,99157.48
2023-01-21T13:56:26.217Z,99164.27
2023-01-21T13:59:53.052Z,99164.20
2023-01-21T14:03:25.030Z,99174.02
2023-01-21T14:06:35.398Z,99175.50
2023-01-21T14:09:44.884Z,99177.62
2023-01-21T14:13:07.218Z,99178.86
2023-01-21T14:16:39.519Z,99188.75
2023-01-21T14:20:01.116Z,99189.29
2023-01-21T14:23:33.078Z,99196.17
2023-01-21T14:26:48.182Z,99197.39
2023-01-21T14:30:04.495Z,99205.98
2023-01-21T14:33:21.779Z,99205.39
2023-01-21T14:36:43.151Z,99209.39
2023-01-21T14:40:11.499Z,99216.65
2023-01-21T14:43:32.929Z,99223.73
2023-01-21T14:46:35.764Z,99237.91
2023-01-21T14:49:41.286Z,99241.64
2023-01-21T14:52:46.222Z,99245.27
2023-01-21T14:56:29.039Z,99251.37
2023-01-21T14:59:32.142Z,99256.85
2023-01-21T15:02:42.104Z,99266.62
2023-01-21T15:05:50.778Z,99272.43
2023-01-21T15:08:59.659Z,99278.13
2023-01-21T15:12:07.813Z,99283.63
2023-01-21T15:15:31.755Z,99288.02
2023-01-21T15:18:37.890Z,99291.90
2023-01-21T15:21:40.588Z,99300.77
2023-01-21T15:25:07.207Z,99302.45
2023-01-21T15:28:25.311Z,99306.05
2023-01-21T15:31:28.224Z,99313.09
2023-01-21T15:34:34.923Z,99318.63
2023-01-21T15:37:41.183Z,99321.36
2023-01-21T15:40:54.008Z,99321.92
2023-01-21T15:44:08.261Z,99326.11
2023-01-21T15:47:40.980Z,99330.35
2023-01-21T15:51:18.047Z,99327.88
2023-01-21T15:54:22.350Z,99335.84
2023-01-21T15:58:10.317Z,99339.76
2023-01-21T16:01:19.378Z,99349.53
2023-01-21T16:04:48.780Z,99355.98
2023-01-21T16:08:25.879Z,99364.87
2023-01-21T16:11:33.945Z,99374.22
2023-01-21T16:14:52.682Z,99373.64
2023-01-21T16:17:58.771Z,99379.62
2023-01-21T16:21:04.069Z,99381.62
2023-01-21T16:24:17.180Z,99387.35
2023-01-21T16:27:28.382Z,99390.15
2023-01-21T16:30:32.005Z,99401.54
2023-01-21T16:33:35.084Z,99410.02
2023-01-21T16:36:40.041Z,99418.09
2023-01-21T16:39:46.888Z,99426.17
2023-01-21T16:43:06.648Z,99432.39
2023-01-21T16:46:15.576Z,99437.98
2023-01-21T16:49:19.122Z,99441.41
2023-01-21T16:52:26.164Z,99445.01
2023-01-21T16:55:30.977Z,99446.99
2023-01-21T16:58:35.156Z,99455.39
2023-01-21T17:01:38.561Z,99461.46
2023-01-21T17:04:41.355Z,99465.52
2023-01-21T17:07:44.175Z,99470.48
2023-01-21T17:11:10.384Z,99477.31
2023-01-21T17:14:27.781Z,99477.84
2023-01-21T17:17:34.019Z,99485.51
2023-01-21T17:20:43.849Z,99492.79
2023-01-21T17:23:50.454Z,99494.28
2023-01-21T17:27:11.471Z,99500.64
2023-01-21T17:30:33.370Z,99501.96
2023-01-21T17:33:36.282Z,99510.94
2023-01-21T17:36:40.928Z,99520.23
2023-01-21T17:39:49.556Z,99527.86
2023-01-21T17:42:53.470Z,99531.89
2023-01-21T17:45:58.124Z,99536.51
2023-01-21T17:49:07.520Z,99543.67
2023-01-21T17:52:20.298Z,99543.00
2023-01-21T17:55:30.115Z,99551.20
2023-01-21T17:58:45.937Z,99556.29
2023-01-21T18:01:48.841Z,99560.08
2023-01-21T18:04:56.413Z,99571.18
2023-01-21T18:07:59.294Z,99570.56
2023-01-21T18:11:02.071Z,99575.98
2023-01-21T18:14:05.706Z,99581.21
2023-01-21T18:17:17.677Z,99579.54
2023-01-21T18:20:26.179Z,99589.69
2023-01-21T18:23:30.083Z,99597.02
2023-01-21T18:26:34.167Z,99602.31
2023-01-21T18:29:37.014Z,99607.94
2023-01-21T18:32:41.801Z,99614.22
2023-01-21T18:35:47.970Z,99621.21
2023-01-21T18:38:50.736Z,99620.02
2023-01-21T18:41:55.554Z,99626.32
2023-01-21T18:44:58.353Z,99630.44
2023-01-21T18:48:01.210Z,99632.12
2023-01-21T18:51:07.511Z,99640.11
2023-01-21T18:54:13.048Z,99643.06
2023-01-21T18:57:19.004Z,99643.44
2023-01-21T19:00:22.792Z,99641.40
2023-01-21T19:03:25.663Z,99651.45
2023-01-21T19:06:28.611Z,99652.89
2023-01-21T19:09:35.910Z,99657.88
2023-01-21T19:12:39.875Z,99660.48
2023-01-21T19:15:43.304Z,99669.39
2023-01-21T19:18:46.344Z,99673.61
2023-01-21T19:21:53.199Z,99684.80
2023-01-21T19:24:56.364Z,99682.39
2023-01-21T19:27:59.801Z,99685.93
2023-01-21T19:31:02.773Z,99692.30
2023-01-21T19:34:07.593Z,99699.19
2023-01-21T19:37:15.915Z,99706.11
2023-01-21T19:40:21.489Z,99699.40
2023-01-21T19:43:24.750Z,99709.35
2023-01-21T19:46:29.000Z,99712.77
2023-01-21T19:49:31.878Z,99718.13
2023-01-21T19:52:34.806Z,99720.14
2023-01-21T19:55:39.225Z,99723.79
2023-01-21T19:58:42.215Z,99726.94
2023-01-21T20:01:45.933Z,99728.59
2023-01-21T20:04:48.758Z,99731.11
2023-01-21T20:07:52.548Z,99734.00
2023-01-21T20:10:56.045Z,99737.73
2023-01-21T20:13:58.788Z,99746.54
2023-01-21T20:17:03.145Z,99746.21
2023-01-21T20:20:24.651Z,99749.75
2023-01-21T20:23:27.546Z,99753.10
2023-01-21T20:26:30.360Z,99756.95
2023-01-21T20:29:36.002Z,99765.14
2023-01-21T20:32:40.442Z,99771.83
2023-01-21T20:35:46.429Z,99773.33
2023-01-21T20:38:49.967Z,99774.95
2023-01-21T20:41:52.747Z,99782.95
2023-01-21T20:44:55.766Z,99784.96
2023-01-21T20:48:01.010Z,99790.20
2023-01-21T20:51:04.403Z,99796.02
2023-01-21T20:54:07.289Z,99797.48
2023-01-21T20:57:13.607Z,99798.44
2023-01-21T21:00:18.445Z,99799.84
2023-01-21T21:03:21.256Z,99807.45
2023-01-21T21:06:27.997Z,99801.02
2023-01-21T21:09:36.184Z,99807.71
2023-01-21T21:12:38.883Z,99815.91
2023-01-21T21:15:45.046Z,99824.70
2023-01-21T21:18:49.708Z,99831.65
2023-01-21T21:21:52.488Z,99833.10
2023-01-21T21:24:55.364Z,99836.36
2023-01-21T21:27:58.120Z,99841.31
2023-01-21T21:31:03.975Z,99845.21
2023-01-21T21:34:06.994Z,99848.81
2023-01-21T21:37:12.208Z,99852.20
2023-01-21T21:40:15.345Z,99858.75
2023-01-21T21:43:35.829Z,99865.13
2023-01-21T21:46:57.912Z,99869.16
2023-01-21T21:50:00.713Z,99878.55
2023-01-21T21:53:06.218Z,99881.80
2023-01-21T21:56:24.540Z,99888.20
2023-01-21T21:59:27.313Z,99892.04
2023-01-21T22:02:30.312Z,99891.29
2023-01-21T22:05:35.643Z,99892.41
2023-01-21T22:08:40.902Z,99894.34
2023-01-21T22:11:43.627Z,99897.52
2023-01-21T22:14:46.373Z,99900.95
2023-01-21T22:17:50.585Z,99905.80
2023-01-21T22:21:00.278Z,99903.09
2023-01-21T22:24:06.773Z,99907.64
2023-01-21T22:27:12.531Z,99910.61
2023-01-21T22:30:15.691Z,99912.09
2023-01-21T22:33:18.471Z,99910.40
2023-01-21T22:36:24.289Z,99911.91
2023-01-21T22:39:27.059Z,99914.11
2023-01-21T22:42:32.498Z,99911.24
2023-01-21T22:45:35.918Z,99908.27
2023-01-21T22:48:39.248Z,99913.55
2023-01-21T22:51:42.037Z,99915.55
2023-01-21T22:54:47.234Z,99916.56
2023-01-21T22:57:51.582Z,99916.97
2023-01-21T23:00:55.520Z,99923.30
2023-01-21T23:03:59.631Z,99925.41
2023-01-21T23:07:02.371Z,99928.32
2023-01-21T23:10:05.857Z,99934.21
2023-01-21T23:13:09.829Z,99935.75
2023-01-21T23:16:20.956Z,99934.11
2023-01-21T23:19:24.002Z,99939.00
2023-01-21T23:22:28.865Z,99934.60
2023-01-21T23:25:31.689Z,99935.19
2023-01-21T23:28:35.870Z,99933.05
2023-01-21T23:31:38.690Z,99939.64
2023-01-21T23:34:41.562Z,99944.70
2023-01-21T23:37:44.431Z,99944.20
2023-01-21T23:40:47.422Z,99941.87
2023-01-21T23:43:52.542Z,99941.88
2023-01-21T23:46:55.254Z,99943.15
2023-01-21T23:49:58.082Z,99946.55
2023-01-21T23:53:00.837Z,99951.02
2023-01-21T23:56:13.587Z,99952.66
2023-01-21T23:59:16.451Z,99960.72
